createdAt,value
2018-09-14T00:00:47.323Z,21.25
2018-09-14T00:03:17.566Z,21.16
2018-09-14T00:05:48.911Z,21.23
2018-09-14T00:08:20.380Z,21.28
2018-09-14T00:10:52.123Z,21.34
2018-09-14T00:13:22.944Z,21.24
2018-09-14T00:15:53.656Z,21.21
2018-09-14T00:18:23.966Z,21.28
2018-09-14T00:20:54.440Z,21.19
2018-09-14T00:23:25.923Z,21.22
2018-09-14T00:25:56.139Z,21.24
2018-09-14T00:28:26.645Z,21.18
2018-09-14T00:30:57.484Z,21.18
2018-09-14T00:33:27.780Z,21.18
2018-09-14T00:35:58.755Z,21.11
2018-09-14T00:38:29.273Z,21.02
2018-09-14T00:41:00.074Z,21.17
2018-09-14T00:43:30.624Z,21.18
2018-09-14T00:46:01.164Z,21.13
2018-09-14T00:48:32.484Z,21.21
2018-09-14T00:51:02.815Z,21.21
2018-09-14T00:53:33.669Z,21.32
2018-09-14T00:56:04.200Z,21.25
2018-09-14T00:58:34.779Z,21.26
2018-09-14T01:01:05.391Z,21.26
2018-09-14T01:03:36.009Z,21.22
2018-09-14T01:06:06.761Z,21.26
2018-09-14T01:08:37.256Z,21.33
2018-09-14T01:11:07.478Z,21.23
2018-09-14T01:13:38.037Z,21.22
2018-09-14T01:16:08.527Z,21.02
2018-09-14T01:18:38.733Z,21.14
2018-09-14T01:21:10.441Z,21.07
2018-09-14T01:23:41.097Z,21.12
2018-09-14T01:26:11.457Z,21.18
2018-09-14T01:28:41.791Z,21.03
2018-09-14T01:31:12.719Z,21.06
2018-09-14T01:33:42.928Z,20.98
2018-09-14T01:36:13.508Z,20.94
2018-09-14T01:38:44.042Z,21.01
2018-09-14T01:41:14.572Z,20.80
2018-09-14T01:43:45.099Z,20.88
2018-09-14T01:46:17.931Z,20.93
2018-09-14T01:48:51.766Z,20.95
2018-09-14T01:51:22.321Z,20.88
2018-09-14T01:53:53.012Z,20.94
2018-09-14T01:56:23.530Z,20.88
2018-09-14T01:58:54.064Z,20.97
2018-09-14T02:01:24.313Z,20.86
2018-09-14T02:03:54.848Z,20.94
2018-09-14T02:06:26.940Z,20.94
2018-09-14T02:08:57.712Z,21.03
2018-09-14T02:11:27.931Z,20.98
2018-09-14T02:13:58.600Z,21.02
2018-09-14T02:16:29.400Z,21.04
2018-09-14T02:19:00.443Z,20.97
2018-09-14T02:21:31.010Z,20.98
2018-09-14T02:24:01.582Z,20.88
2018-09-14T02:26:31.903Z,20.94
2018-09-14T02:29:03.264Z,20.86
2018-09-14T02:31:33.734Z,20.82
2018-09-14T02:34:04.284Z,20.91
2018-09-14T02:36:35.072Z,20.84
2018-09-14T02:39:07.745Z,20.88
2018-09-14T02:41:38.245Z,20.93
2018-09-14T02:44:08.811Z,21.12
2018-09-14T02:46:39.335Z,20.97
2018-09-14T02:49:14.464Z,20.99
2018-09-14T02:51:45.001Z,20.85
2018-09-14T02:54:15.550Z,20.87
2018-09-14T02:56:46.355Z,21.04
2018-09-14T02:59:16.880Z,21.08
2018-09-14T03:01:47.137Z,20.91
2018-09-14T03:04:17.406Z,20.89
2018-09-14T03:06:48.185Z,20.77
2018-09-14T03:09:18.436Z,20.73
2018-09-14T03:11:49.075Z,20.62
2018-09-14T03:14:19.780Z,20.69
2018-09-14T03:16:50.031Z,20.61
2018-09-14T03:19:20.557Z,20.65
2018-09-14T03:21:51.009Z,20.63
2018-09-14T03:24:21.688Z,20.57
2018-09-14T03:26:52.215Z,20.68
2018-09-14T03:29:22.986Z,20.54
2018-09-14T03:31:54.324Z,20.59
2018-09-14T03:34:24.552Z,20.61
2018-09-14T03:36:55.268Z,20.64
2018-09-14T03:39:26.723Z,20.68
2018-09-14T03:41:57.360Z,20.77
2018-09-14T03:44:28.104Z,20.85
2018-09-14T03:46:58.612Z,20.79
2018-09-14T03:49:29.234Z,20.77
2018-09-14T03:52:00.364Z,20.67
2018-09-14T03:54:31.049Z,20.79
2018-09-14T03:57:04.807Z,20.80
2018-09-14T03:59:37.944Z,20.78
2018-09-14T04:02:08.566Z,20.87
2018-09-14T04:04:39.321Z,20.89
2018-09-14T04:07:09.942Z,20.80
2018-09-14T04:09:40.977Z,20.75
2018-09-14T04:12:11.501Z,20.80
2018-09-14T04:14:42.457Z,20.76
2018-09-14T04:17:13.091Z,20.88
2018-09-14T04:19:43.960Z,20.84
2018-09-14T04:22:14.511Z,20.76
2018-09-14T04:24:45.964Z,20.74
2018-09-14T04:27:16.464Z,20.78
2018-09-14T04:29:47.005Z,20.76
2018-09-14T04:32:17.521Z,20.79
2018-09-14T04:34:48.271Z,20.73
2018-09-14T04:37:18.912Z,20.69
2018-09-14T04:39:49.840Z,20.65
2018-09-14T04:42:22.035Z,20.71
2018-09-14T04:44:52.367Z,20.76
2018-09-14T04:47:22.913Z,20.68
2018-09-14T04:49:53.871Z,20.71
2018-09-14T04:52:24.399Z,20.71
2018-09-14T04:54:54.617Z,20.67
2018-09-14T04:57:25.348Z,20.68
2018-09-14T04:59:56.400Z,20.64
2018-09-14T05:02:26.983Z,20.76
2018-09-14T05:04:57.512Z,20.72
2018-09-14T05:07:29.673Z,20.67
2018-09-14T05:10:00.431Z,20.69
2018-09-14T05:12:31.361Z,20.82
2018-09-14T05:15:01.819Z,21.00
2018-09-14T05:17:33.581Z,21.11
2018-09-14T05:20:07.024Z,21.15
2018-09-14T05:22:37.458Z,21.15
2018-09-14T05:25:08.898Z,21.32
2018-09-14T05:27:39.314Z,21.41
2018-09-14T05:30:09.575Z,21.39
2018-09-14T05:32:40.041Z,21.48
2018-09-14T05:35:10.343Z,21.59
2018-09-14T05:37:40.863Z,21.45
2018-09-14T05:40:11.111Z,21.39
2018-09-14T05:42:41.604Z,21.35
2018-09-14T05:45:13.348Z,21.46
2018-09-14T05:47:43.890Z,21.54
2018-09-14T05:50:14.435Z,21.37
2018-09-14T05:52:45.133Z,21.27
2018-09-14T05:55:15.703Z,21.63
2018-09-14T05:57:46.276Z,21.66
2018-09-14T06:00:17.160Z,21.57
2018-09-14T06:02:47.789Z,21.55
2018-09-14T06:05:18.201Z,21.60
2018-09-14T06:07:48.544Z,21.34
2018-09-14T06:10:19.891Z,21.22
2018-09-14T06:12:51.049Z,21.17
2018-09-14T06:15:22.165Z,21.12
2018-09-14T06:17:53.018Z,20.99
2018-09-14T06:20:27.055Z,21.06
2018-09-14T06:22:57.598Z,21.05
2018-09-14T06:25:28.420Z,21.14
2018-09-14T06:27:58.804Z,21.07
2018-09-14T06:30:29.363Z,20.99
2018-09-14T06:33:00.051Z,21.20
2018-09-14T06:35:30.419Z,21.17
2018-09-14T06:38:00.941Z,21.15
2018-09-14T06:40:33.632Z,21.12
2018-09-14T06:43:03.866Z,20.88
2018-09-14T06:45:34.720Z,20.88
2018-09-14T06:48:05.791Z,20.87
2018-09-14T06:50:36.396Z,20.93
2018-09-14T06:53:06.952Z,21.00
2018-09-14T06:55:37.564Z,21.01
2018-09-14T06:58:07.804Z,21.11
2018-09-14T07:00:38.329Z,20.93
2018-09-14T07:03:10.231Z,20.83
2018-09-14T07:05:40.533Z,20.82
2018-09-14T07:08:11.335Z,20.93
2018-09-14T07:10:41.885Z,20.85
2018-09-14T07:13:12.478Z,20.80
2018-09-14T07:15:44.453Z,20.75
2018-09-14T07:18:15.006Z,20.71
2018-09-14T07:20:45.642Z,20.58
2018-09-14T07:23:16.381Z,20.64
2018-09-14T07:25:46.878Z,20.58
2018-09-14T07:28:17.948Z,20.64
2018-09-14T07:30:49.075Z,20.79
2018-09-14T07:33:19.788Z,20.94
2018-09-14T07:35:50.476Z,21.00
2018-09-14T07:38:20.735Z,20.99
2018-09-14T07:40:51.543Z,20.88
2018-09-14T07:43:21.780Z,21.03
2018-09-14T07:45:52.474Z,20.57
2018-09-14T07:48:23.049Z,21.01
2018-09-14T07:50:53.740Z,21.12
2018-09-14T07:53:24.329Z,21.12
2018-09-14T07:55:54.996Z,21.17
2018-09-14T07:58:25.574Z,21.07
2018-09-14T08:00:56.112Z,20.83
2018-09-14T08:03:26.632Z,20.97
2018-09-14T08:05:57.228Z,21.04
2018-09-14T08:08:30.418Z,21.02
2018-09-14T08:11:00.646Z,21.18
2018-09-14T08:13:31.151Z,21.31
2018-09-14T08:16:01.563Z,20.76
2018-09-14T08:18:32.318Z,20.95
2018-09-14T08:21:02.920Z,21.04
2018-09-14T08:23:33.430Z,20.95
2018-09-14T08:26:04.328Z,21.14
2018-09-14T08:28:48.090Z,21.08
2018-09-14T08:31:18.737Z,21.10
2018-09-14T08:33:49.556Z,21.20
2018-09-14T08:36:20.796Z,21.25
2018-09-14T08:38:51.526Z,21.43
2018-09-14T08:41:21.744Z,21.52
2018-09-14T08:43:53.109Z,21.82
2018-09-14T08:46:23.633Z,21.67
2018-09-14T08:48:54.292Z,21.57
2018-09-14T08:51:24.896Z,21.26
2018-09-14T08:53:59.220Z,21.16
2018-09-14T08:56:29.740Z,21.22
2018-09-14T08:59:00.148Z,21.22
2018-09-14T09:01:31.307Z,21.18
2018-09-14T09:04:01.521Z,21.11
2018-09-14T09:06:31.784Z,21.17
2018-09-14T09:09:02.424Z,21.20
2018-09-14T09:11:32.927Z,21.32
2018-09-14T09:14:03.822Z,21.39
2018-09-14T09:16:35.013Z,21.37
2018-09-14T09:19:05.921Z,21.23
2018-09-14T09:21:37.971Z,21.45
2018-09-14T09:24:08.340Z,21.42
2018-09-14T09:26:38.639Z,21.37
2018-09-14T09:29:10.814Z,21.43
2018-09-14T09:31:41.488Z,21.34
2018-09-14T09:34:12.132Z,21.43
2018-09-14T09:36:42.753Z,21.65
2018-09-14T09:39:13.919Z,21.57
2018-09-14T09:41:44.457Z,21.49
2018-09-14T09:44:15.469Z,21.54
2018-09-14T09:46:46.063Z,21.57
2018-09-14T09:49:16.845Z,21.91
2018-09-14T09:51:47.489Z,21.82
2018-09-14T09:54:17.756Z,21.75
2018-09-14T09:56:48.489Z,21.62
2018-09-14T09:59:19.149Z,21.64
2018-09-14T10:01:54.865Z,21.71
2018-09-14T10:04:30.297Z,21.81
2018-09-14T10:07:01.040Z,21.58
2018-09-14T10:09:31.551Z,21.72
2018-09-14T10:12:02.381Z,21.86
2018-09-14T10:14:32.628Z,22.05
2018-09-14T10:17:03.162Z,22.04
2018-09-14T10:19:33.568Z,21.71
2018-09-14T10:22:03.853Z,21.64
2018-09-14T10:24:34.101Z,21.69
2018-09-14T10:27:04.624Z,21.79
2018-09-14T10:29:35.407Z,21.86
2018-09-14T10:32:05.943Z,21.99
2018-09-14T10:34:38.135Z,22.02
2018-09-14T10:37:09.885Z,22.65
2018-09-14T10:39:40.263Z,22.87
2018-09-14T10:42:10.510Z,22.46
2018-09-14T10:44:42.167Z,22.39
2018-09-14T10:47:12.576Z,22.44
2018-09-14T10:49:42.920Z,22.51
2018-09-14T10:52:13.473Z,22.64
2018-09-14T10:54:44.189Z,22.49
2018-09-14T10:57:14.911Z,22.45
2018-09-14T10:59:45.142Z,22.19
2018-09-14T11:02:17.517Z,22.10
2018-09-14T11:04:47.838Z,22.27
2018-09-14T11:07:18.913Z,22.35
2018-09-14T11:09:49.522Z,22.57
2018-09-14T11:12:20.350Z,22.61
2018-09-14T11:14:52.081Z,22.56
2018-09-14T11:17:22.932Z,22.03
2018-09-14T11:19:53.948Z,22.56
2018-09-14T11:22:24.314Z,22.71
2018-09-14T11:24:55.196Z,22.66
2018-09-14T11:27:26.027Z,22.49
2018-09-14T11:29:56.741Z,22.53
2018-09-14T11:32:28.072Z,22.33
2018-09-14T11:34:59.364Z,22.31
2018-09-14T11:37:29.974Z,22.46
2018-09-14T11:40:01.767Z,22.37
2018-09-14T11:42:32.478Z,22.64
2018-09-14T11:45:03.187Z,22.55
2018-09-14T11:47:33.887Z,22.56
2018-09-14T11:50:05.063Z,22.60
2018-09-14T11:52:35.885Z,22.63
2018-09-14T11:55:06.484Z,22.38
2018-09-14T11:57:36.925Z,22.38
2018-09-14T12:00:07.794Z,22.00
2018-09-14T12:02:39.503Z,22.57
2018-09-14T12:05:10.094Z,22.61
2018-09-14T12:07:40.619Z,22.58
2018-09-14T12:10:11.177Z,22.55
2018-09-14T12:12:41.979Z,22.35
2018-09-14T12:15:12.221Z,22.27
2018-09-14T12:17:42.710Z,22.19
2018-09-14T12:20:13.184Z,22.25
2018-09-14T12:22:43.747Z,22.33
2018-09-14T12:25:13.987Z,22.31
2018-09-14T12:27:44.502Z,22.20
2018-09-14T12:30:15.082Z,22.15
2018-09-14T12:32:45.544Z,22.11
2018-09-14T12:35:16.688Z,22.20
2018-09-14T12:37:47.548Z,22.11
2018-09-14T12:40:18.742Z,22.14
2018-09-14T12:42:49.020Z,22.24
2018-09-14T12:45:19.546Z,22.10
2018-09-14T12:47:50.416Z,22.13
2018-09-14T12:50:21.160Z,22.31
2018-09-14T12:52:51.948Z,22.21
2018-09-14T12:55:22.627Z,22.14
2018-09-14T12:57:53.133Z,22.28
2018-09-14T13:00:23.668Z,22.26
2018-09-14T13:02:54.716Z,22.22
2018-09-14T13:05:25.204Z,21.94
2018-09-14T13:07:55.745Z,21.99
2018-09-14T13:10:26.355Z,22.11
2018-09-14T13:12:57.723Z,21.98
2018-09-14T13:15:28.426Z,21.75
2018-09-14T13:17:58.833Z,21.54
2018-09-14T13:20:29.573Z,21.34
2018-09-14T13:22:59.851Z,21.28
2018-09-14T13:25:30.391Z,21.22
2018-09-14T13:28:00.979Z,21.31
2018-09-14T13:30:31.922Z,21.29
2018-09-14T13:33:02.681Z,21.34
2018-09-14T13:35:33.666Z,21.33
2018-09-14T13:38:04.260Z,21.14
2018-09-14T13:40:34.759Z,21.11
2018-09-14T13:43:05.031Z,20.98
2018-09-14T13:45:35.860Z,20.86
2018-09-14T13:48:06.422Z,20.75
2018-09-14T13:50:36.973Z,20.73
2018-09-14T13:53:07.474Z,20.76
2018-09-14T13:55:38.035Z,20.88
2018-09-14T13:58:08.948Z,20.78
2018-09-14T14:00:39.540Z,20.61
2018-09-14T14:03:09.800Z,20.68
2018-09-14T14:05:40.068Z,20.66
2018-09-14T14:08:10.560Z,20.65
2018-09-14T14:10:41.084Z,20.56
2018-09-14T14:13:11.400Z,20.61
2018-09-14T14:15:41.893Z,20.80
2018-09-14T14:18:12.283Z,20.87
2018-09-14T14:20:43.279Z,20.99
2018-09-14T14:23:13.789Z,21.14
2018-09-14T14:25:44.881Z,21.23
2018-09-14T14:28:15.332Z,21.48
2018-09-14T14:30:46.015Z,21.69
2018-09-14T14:33:16.520Z,21.29
2018-09-14T14:35:47.409Z,21.27
2018-09-14T14:38:17.929Z,21.48
2018-09-14T14:40:48.439Z,21.88
2018-09-14T14:43:18.996Z,21.46
2018-09-14T14:45:50.014Z,21.45
2018-09-14T14:48:20.655Z,21.04
2018-09-14T14:50:51.448Z,20.74
2018-09-14T14:53:21.952Z,20.55
2018-09-14T14:55:52.541Z,20.30
2018-09-14T14:58:23.348Z,20.12
2018-09-14T15:00:53.855Z,20.04
2018-09-14T15:03:25.029Z,19.91
2018-09-14T15:05:55.532Z,19.90
2018-09-14T15:08:26.255Z,19.94
2018-09-14T15:10:56.928Z,20.10
2018-09-14T15:13:27.452Z,20.17
2018-09-14T15:15:58.295Z,20.04
2018-09-14T15:18:28.940Z,20.03
2018-09-14T15:20:59.509Z,19.96
2018-09-14T15:23:29.722Z,19.89
2018-09-14T15:25:59.979Z,19.80
2018-09-14T15:28:30.204Z,19.81
2018-09-14T15:31:00.911Z,19.89
2018-09-14T15:33:31.476Z,19.96
2018-09-14T15:36:01.999Z,19.97
2018-09-14T15:38:32.407Z,19.87
2018-09-14T15:41:02.956Z,19.84
2018-09-14T15:43:33.355Z,19.82
2018-09-14T15:46:04.052Z,19.92
2018-09-14T15:48:34.586Z,19.92
2018-09-14T15:51:05.355Z,19.87
2018-09-14T15:53:35.985Z,19.92
2018-09-14T15:56:07.086Z,19.75
2018-09-14T15:58:37.968Z,19.72
2018-09-14T16:01:08.581Z,19.61
2018-09-14T16:03:39.301Z,19.52
2018-09-14T16:06:09.592Z,19.57
2018-09-14T16:08:39.899Z,19.55
2018-09-14T16:11:10.434Z,19.49
2018-09-14T16:13:41.339Z,19.63
2018-09-14T16:16:11.984Z,19.38
2018-09-14T16:18:42.260Z,19.52
2018-09-14T16:21:12.820Z,19.55
2018-09-14T16:23:43.359Z,19.55
2018-09-14T16:26:14.061Z,19.49
2018-09-14T16:28:44.612Z,19.41
2018-09-14T16:31:15.404Z,19.45
2018-09-14T16:33:46.417Z,19.36
2018-09-14T16:36:16.897Z,19.30
2018-09-14T16:38:47.649Z,19.31
2018-09-14T16:41:18.150Z,19.27
2018-09-14T16:43:49.037Z,19.26
2018-09-14T16:46:19.628Z,19.20
2018-09-14T16:48:50.388Z,19.25
2018-09-14T16:51:21.442Z,19.14
2018-09-14T16:53:52.124Z,19.12
2018-09-14T16:56:22.820Z,19.05
2018-09-14T16:58:53.333Z,19.07
2018-09-14T17:01:23.641Z,19.01
2018-09-14T17:03:57.274Z,19.10
2018-09-14T17:06:27.541Z,18.99
2018-09-14T17:08:58.391Z,19.12
2018-09-14T17:11:29.200Z,19.17
2018-09-14T17:14:00.067Z,19.27
2018-09-14T17:16:30.613Z,19.29
2018-09-14T17:19:03.912Z,19.35
2018-09-14T17:21:34.730Z,19.48
2018-09-14T17:24:05.569Z,19.55
2018-09-14T17:26:36.139Z,19.30
2018-09-14T17:29:06.691Z,20.20
2018-09-14T17:31:37.259Z,20.28
2018-09-14T17:34:22.669Z,20.12
2018-09-14T17:36:53.213Z,20.13
2018-09-14T17:39:23.724Z,20.34
2018-09-14T17:41:54.272Z,20.51
2018-09-14T17:44:24.849Z,20.87
2018-09-14T17:46:55.658Z,20.92
2018-09-14T17:49:26.650Z,20.82
2018-09-14T17:51:57.063Z,20.46
2018-09-14T17:54:27.579Z,20.59
2018-09-14T17:56:57.918Z,20.50
2018-09-14T17:59:28.949Z,20.72
2018-09-14T18:01:59.716Z,20.73
2018-09-14T18:04:30.264Z,20.52
2018-09-14T18:07:00.658Z,20.47
2018-09-14T18:09:31.076Z,20.22
2018-09-14T18:12:01.830Z,20.43
2018-09-14T18:14:32.420Z,20.49
2018-09-14T18:17:02.729Z,20.38
2018-09-14T18:19:34.366Z,20.27
2018-09-14T18:22:04.885Z,20.26
2018-09-14T18:24:35.724Z,20.41
2018-09-14T18:27:06.557Z,20.30
2018-09-14T18:29:37.084Z,20.13
2018-09-14T18:32:07.965Z,20.10
2018-09-14T18:34:39.100Z,20.41
2018-09-14T18:37:10.192Z,20.30
2018-09-14T18:39:40.871Z,20.30
2018-09-14T18:42:11.560Z,20.63
2018-09-14T18:44:42.505Z,20.35
2018-09-14T18:47:12.794Z,20.02
2018-09-14T18:49:43.561Z,20.19
2018-09-14T18:52:14.052Z,20.30
2018-09-14T18:54:44.513Z,20.15
2018-09-14T18:57:16.418Z,20.11
2018-09-14T18:59:47.625Z,20.19
2018-09-14T19:02:17.986Z,20.49
2018-09-14T19:04:48.698Z,20.52
2018-09-14T19:07:19.792Z,20.25
2018-09-14T19:09:50.067Z,20.07
2018-09-14T19:12:21.176Z,20.02
2018-09-14T19:14:51.808Z,19.92
2018-09-14T19:17:22.385Z,19.92
2018-09-14T19:19:53.920Z,19.85
2018-09-14T19:22:24.494Z,19.67
2018-09-14T19:24:54.996Z,19.47
2018-09-14T19:27:26.009Z,19.55
2018-09-14T19:29:56.566Z,19.72
2018-09-14T19:32:26.940Z,19.58
2018-09-14T19:34:57.304Z,20.32
2018-09-14T19:37:27.848Z,20.12
2018-09-14T19:39:58.705Z,20.05
2018-09-14T19:42:29.004Z,20.16
2018-09-14T19:44:59.736Z,19.92
2018-09-14T19:47:30.089Z,20.15
2018-09-14T19:50:00.487Z,20.05
2018-09-14T19:52:32.414Z,20.23
2018-09-14T19:55:03.118Z,19.90
2018-09-14T19:57:33.415Z,19.82
2018-09-14T20:00:04.349Z,19.23
2018-09-14T20:02:34.892Z,19.81
2018-09-14T20:05:06.847Z,20.11
2018-09-14T20:07:37.516Z,20.41
2018-09-14T20:10:08.055Z,20.66
2018-09-14T20:12:38.404Z,20.42
2018-09-14T20:15:10.053Z,20.89
2018-09-14T20:17:40.984Z,20.76
2018-09-14T20:20:12.304Z,20.08
2018-09-14T20:22:44.434Z,19.80
2018-09-14T20:25:14.712Z,19.72
2018-09-14T20:27:45.567Z,19.71
2018-09-14T20:30:16.107Z,19.73
2018-09-14T20:32:47.628Z,19.70
2018-09-14T20:35:17.976Z,19.49
2018-09-14T20:37:48.767Z,19.47
2018-09-14T20:40:19.502Z,19.47
2018-09-14T20:42:50.280Z,19.57
2018-09-14T20:45:20.852Z,19.70
2018-09-14T20:47:51.384Z,19.65
2018-09-14T20:50:22.000Z,19.57
2018-09-14T20:52:52.276Z,19.47
2018-09-14T20:55:22.829Z,19.42
2018-09-14T20:57:54.375Z,19.32
2018-09-14T21:00:25.726Z,19.24
2018-09-14T21:02:56.602Z,19.18
2018-09-14T21:05:27.741Z,19.15
2018-09-14T21:07:58.274Z,19.17
2018-09-14T21:10:28.743Z,19.12
2018-09-14T21:12:59.532Z,19.10
2018-09-14T21:15:30.197Z,19.16
2018-09-14T21:18:00.480Z,19.00
2018-09-14T21:20:31.106Z,19.01
2018-09-14T21:23:01.471Z,18.92
2018-09-14T21:25:32.203Z,18.25
2018-09-14T21:28:02.752Z,18.84
2018-09-14T21:30:33.528Z,18.83
2018-09-14T21:33:04.272Z,18.97
2018-09-14T21:35:34.970Z,19.09
2018-09-14T21:38:05.531Z,19.18
2018-09-14T21:40:36.236Z,19.18
2018-09-14T21:43:06.996Z,19.35
2018-09-14T21:45:37.565Z,19.32
2018-09-14T21:48:08.012Z,19.17
2018-09-14T21:50:39.459Z,19.37
2018-09-14T21:53:10.337Z,19.53
2018-09-14T21:55:41.040Z,19.38
2018-09-14T21:58:11.759Z,19.13
2018-09-14T22:00:47.563Z,19.04
2018-09-14T22:03:18.182Z,18.96
2018-09-14T22:05:48.623Z,18.80
2018-09-14T22:08:19.903Z,18.78
2018-09-14T22:10:50.422Z,18.65
2018-09-14T22:13:21.544Z,18.61
2018-09-14T22:15:52.129Z,18.59
2018-09-14T22:18:22.717Z,18.60
2018-09-14T22:20:53.521Z,18.62
2018-09-14T22:23:24.251Z,18.62
2018-09-14T22:25:54.806Z,18.65
2018-09-14T22:28:25.459Z,18.58
2018-09-14T22:30:56.432Z,18.46
2018-09-14T22:33:26.757Z,18.52
2018-09-14T22:35:57.532Z,18.57
2018-09-14T22:38:28.076Z,18.45
2018-09-14T22:40:58.575Z,18.51
2018-09-14T22:43:28.863Z,18.46
2018-09-14T22:45:59.626Z,18.45
2018-09-14T22:48:30.264Z,18.44
2018-09-14T22:51:00.500Z,18.47
2018-09-14T22:53:34.212Z,18.43
2018-09-14T22:56:04.876Z,18.40
2018-09-14T22:58:35.354Z,18.40
2018-09-14T23:01:10.854Z,18.35
2018-09-14T23:03:42.588Z,18.33
2018-09-14T23:06:13.144Z,18.27
2018-09-14T23:08:44.372Z,18.23
2018-09-14T23:11:15.183Z,18.21
2018-09-14T23:13:46.163Z,18.17
2018-09-14T23:16:16.800Z,18.15
2018-09-14T23:18:47.483Z,18.19
2018-09-14T23:21:18.020Z,18.14
2018-09-14T23:23:48.356Z,18.19
2018-09-14T23:26:22.033Z,18.17
2018-09-14T23:28:52.378Z,18.18
2018-09-14T23:31:23.074Z,18.23
2018-09-14T23:33:53.924Z,18.26
2018-09-14T23:36:24.740Z,18.31
2018-09-14T23:38:55.040Z,18.36
2018-09-14T23:41:25.784Z,18.46
2018-09-14T23:43:56.355Z,18.44
2018-09-14T23:46:27.179Z,18.31
2018-09-14T23:48:57.684Z,18.28
2018-09-14T23:51:28.180Z,18.13
2018-09-14T23:53:58.713Z,18.09
2018-09-14T23:56:29.244Z,18.13
2018-09-14T23:58:59.837Z,18.17
